Accueil
METAR-TAF:

METAR-TAF

Aéroports :

Aéroport de Saint-Brieuc Armor

Saint-Brieuc, France

latitude: 48-32N, longitude: 002-51W, altitude: 138 m

Observation

Le bulletin a été fait il y a 19 minutes, à 15:00 UTC
Vent 20 kt de ouest/sud-ouest, variant entre sud/sud-ouest et ouest
Température 14°C
Humidité 67%
Pression 1009 hPa
Visibilité 10 km ou plus
Nuages épars à une hauteur de 3600 ft
Nuages fragmentés à une hauteur de 13000 ft

METAR: LFRT 281500Z AUTO 25020KT 210V270 9999 SCT036 BKN130 14/08 Q1009

Heure: 16:19 (15:19 UTC)


TAF: absent

Observations et prévisions météorologiques de plus de 4000 aéroports (messages METAR et TAF).

Les stations disponibles sont représentées par des disques jaunes et rouges sur la carte.

Passer la souris dessus pour voir le nom de la station.

Cliquer dessus pour voir les observations et prévisions météorologiques.

Pour changer de carte: cliquez sur les boutons verts avec une croix noire pour zoomer, sur le bouton vert avec un tiret pour effectuer un zoom arrière, ou sur les flèches vertes pour les cartes adjacentes.


METAR-TAF: